Time;durP1;ratioP1;P1;durP2;ratioP2;P2;SDS_P1;SDS_P2;PMS_P1;PMS_P2;Temp;Humidity;BMP_temperature;BMP_pressure;BME280_temperature;BME280_humidity;BME280_pressure;Samples;Min_cycle;Max_cycle;Signal;HPM_P1;HPM_P2
2022/09/10 00:02:00;;;;;;;2.77;1.90;;;15.50;99.90;;;;;;5054794;28;20207;-66
2022/09/10 00:04:26;;;;;;;5.83;1.70;;;15.50;99.90;;;;;;5061758;28;20560;-66
2022/09/10 00:06:52;;;;;;;1.97;1.80;;;15.40;99.90;;;;;;5056163;28;20214;-67
2022/09/10 00:09:17;;;;;;;2.23;1.93;;;15.40;99.90;;;;;;5057262;28;20190;-67
2022/09/10 00:11:45;;;;;;;2.47;2.10;;;15.40;99.90;;;;;;5054431;28;20242;-67
2022/09/10 00:14:18;;;;;;;3.30;1.97;;;15.40;99.90;;;;;;5061414;28;20193;-67
2022/09/10 00:16:43;;;;;;;1.70;1.60;;;15.40;99.90;;;;;;5058966;28;20203;-67
2022/09/10 00:19:09;;;;;;;2.70;1.90;;;15.30;99.90;;;;;;5060963;28;20728;-67
2022/09/10 00:21:34;;;;;;;3.63;2.10;;;15.30;99.90;;;;;;5055037;28;20195;-67
2022/09/10 00:24:01;;;;;;;2.07;1.87;;;15.30;99.90;;;;;;5060966;28;20182;-67
2022/09/10 00:26:29;;;;;;;1.97;1.80;;;15.30;99.90;;;;;;5060150;28;20205;-67
2022/09/10 00:29:00;;;;;;;2.10;1.90;;;15.20;99.90;;;;;;5063302;28;20182;-68
2022/09/10 00:31:26;;;;;;;2.10;2.00;;;15.20;99.90;;;;;;5052700;28;20283;-65
2022/09/10 00:33:53;;;;;;;2.47;2.27;;;15.20;99.90;;;;;;5068946;28;20198;-67
2022/09/10 00:36:21;;;;;;;3.53;2.40;;;15.20;99.90;;;;;;5058943;28;20190;-67
2022/09/10 00:38:49;;;;;;;2.40;2.13;;;15.10;99.90;;;;;;5061052;28;20657;-67
2022/09/10 00:41:18;;;;;;;2.40;2.20;;;15.10;99.90;;;;;;5063320;28;20230;-67
2022/09/10 00:43:48;;;;;;;3.40;1.77;;;15.00;99.90;;;;;;5056868;28;20231;-67
2022/09/10 00:46:42;;;;;;;3.87;1.77;;;15.00;99.90;;;;;;5054782;28;20222;-67
2022/09/10 00:49:36;;;;;;;2.23;1.90;;;15.00;99.90;;;;;;5059777;28;20691;-67
2022/09/10 00:52:02;;;;;;;2.67;2.10;;;15.00;99.90;;;;;;5055011;28;20226;-67
2022/09/10 00:54:30;;;;;;;4.23;1.93;;;14.90;99.90;;;;;;5055579;28;20174;-66
2022/09/10 00:56:59;;;;;;;2.63;2.07;;;14.90;99.90;;;;;;5056536;28;20209;-67
2022/09/10 00:59:26;;;;;;;2.80;2.60;;;14.90;99.90;;;;;;5066061;28;20703;-67
2022/09/10 01:01:54;;;;;;;4.00;2.00;;;14.90;99.90;;;;;;5059360;28;20203;-67
2022/09/10 01:04:20;;;;;;;4.73;2.47;;;14.80;99.90;;;;;;5057239;28;20326;-67
2022/09/10 01:06:48;;;;;;;1.70;1.60;;;14.80;99.90;;;;;;5055533;28;20859;-67
2022/09/10 01:09:14;;;;;;;1.97;1.80;;;14.80;99.90;;;;;;5051009;28;20186;-67
2022/09/10 01:12:08;;;;;;;2.30;2.10;;;14.80;99.90;;;;;;5055005;28;20217;-67
2022/09/10 01:14:55;;;;;;;2.63;1.97;;;14.80;99.90;;;;;;5059623;28;20183;-66
2022/09/10 01:17:32;;;;;;;3.07;1.63;;;14.80;99.90;;;;;;5062933;28;20205;-67
2022/09/10 01:20:07;;;;;;;1.93;1.83;;;14.80;99.90;;;;;;5054434;28;20232;-67
2022/09/10 01:23:05;;;;;;;2.03;1.73;;;14.80;99.90;;;;;;5056414;28;20416;-66
2022/09/10 01:26:08;;;;;;;4.13;2.07;;;14.80;99.90;;;;;;5064234;28;20194;-66
2022/09/10 01:29:11;;;;;;;3.40;1.97;;;14.80;99.90;;;;;;5061737;28;20340;-67
2022/09/10 01:31:48;;;;;;;3.80;2.13;;;14.80;99.90;;;;;;5055111;28;20209;-67
2022/09/10 01:34:28;;;;;;;3.33;2.10;;;14.80;99.90;;;;;;5063076;28;20206;-67
2022/09/10 01:36:59;;;;;;;2.33;2.13;;;14.70;99.90;;;;;;5055876;28;20202;-66
2022/09/10 01:39:26;;;;;;;2.07;1.80;;;14.70;99.90;;;;;;5059301;28;20214;-67
2022/09/10 01:41:53;;;;;;;2.50;2.30;;;14.70;99.90;;;;;;5055585;28;20664;-67
2022/09/10 01:44:39;;;;;;;2.80;2.07;;;14.70;99.90;;;;;;5057748;28;20634;-67
2022/09/10 01:47:41;;;;;;;1.93;1.80;;;14.60;99.90;;;;;;5053550;28;20730;-67
2022/09/10 01:50:30;;;;;;;2.73;2.17;;;14.60;99.90;;;;;;5058558;28;20205;-67
2022/09/10 01:53:08;;;;;;;2.73;1.47;;;14.60;99.90;;;;;;5053317;28;20222;-67
2022/09/10 01:55:54;;;;;;;3.57;2.83;;;14.60;99.90;;;;;;5063353;28;20235;-67
2022/09/10 01:58:32;;;;;;;5.93;2.20;;;14.60;99.90;;;;;;5058843;28;20222;-67
2022/09/10 02:01:16;;;;;;;2.90;1.80;;;14.60;99.90;;;;;;5056910;28;20179;-67
2022/09/10 02:03:45;;;;;;;5.50;1.80;;;14.60;99.90;;;;;;5049805;28;20205;-67
2022/09/10 02:06:14;;;;;;;2.80;2.10;;;14.60;99.90;;;;;;5055552;28;20195;-67
2022/09/10 02:08:44;;;;;;;4.27;1.90;;;14.60;99.90;;;;;;5049501;28;20201;-67
2022/09/10 02:11:11;;;;;;;3.30;2.03;;;14.50;99.90;;;;;;5054958;28;20256;-67
2022/09/10 02:13:37;;;;;;;2.87;2.03;;;14.50;99.90;;;;;;5056225;28;20756;-67
2022/09/10 02:16:09;;;;;;;2.03;1.70;;;14.50;99.90;;;;;;5052580;28;20191;-67
2022/09/10 02:18:37;;;;;;;2.47;2.10;;;14.50;99.90;;;;;;5059393;28;20213;-65
2022/09/10 02:21:03;;;;;;;2.80;2.00;;;14.40;99.90;;;;;;5059187;28;20281;-65
2022/09/10 02:23:41;;;;;;;3.63;1.60;;;14.50;99.90;;;;;;5064088;28;20285;-65
2022/09/10 02:26:06;;;;;;;2.13;1.80;;;14.40;99.90;;;;;;5063268;28;20214;-66
2022/09/10 02:28:32;;;;;;;3.17;1.83;;;14.40;99.90;;;;;;5054757;28;20241;-65
2022/09/10 02:30:58;;;;;;;3.50;1.83;;;14.40;99.90;;;;;;5054652;28;20200;-66
2022/09/10 02:33:24;;;;;;;2.70;2.23;;;14.40;99.90;;;;;;5059937;28;20946;-66
2022/09/10 02:35:50;;;;;;;3.63;2.03;;;14.30;99.90;;;;;;5063397;28;20190;-66
2022/09/10 02:38:17;;;;;;;6.30;2.00;;;14.30;99.90;;;;;;5053911;28;20199;-66
2022/09/10 02:40:42;;;;;;;2.57;2.13;;;14.30;99.90;;;;;;5058901;28;20194;-66
2022/09/10 02:43:08;;;;;;;2.33;1.90;;;14.20;99.90;;;;;;5047895;28;20260;-66
2022/09/10 02:45:33;;;;;;;4.90;2.50;;;14.20;99.90;;;;;;5046342;28;20573;-66
2022/09/10 02:47:59;;;;;;;7.83;2.90;;;14.20;99.90;;;;;;5053247;28;20233;-66
2022/09/10 02:50:24;;;;;;;3.03;2.27;;;14.10;99.90;;;;;;5058651;28;20249;-66
2022/09/10 02:52:50;;;;;;;3.97;2.60;;;14.10;99.90;;;;;;5046858;28;20269;-67
2022/09/10 02:55:16;;;;;;;4.20;2.27;;;14.10;99.90;;;;;;5055186;28;20189;-66
2022/09/10 02:57:42;;;;;;;5.03;2.33;;;14.10;99.90;;;;;;5056940;28;20230;-66
2022/09/10 03:00:08;;;;;;;2.37;2.17;;;14.10;99.90;;;;;;5057579;28;20273;-66
2022/09/10 03:02:35;;;;;;;2.40;2.20;;;14.10;99.90;;;;;;5052370;28;20260;-66
2022/09/10 03:05:03;;;;;;;4.23;2.83;;;14.10;99.90;;;;;;5058457;28;20197;-66
2022/09/10 03:07:29;;;;;;;2.10;1.90;;;14.00;99.90;;;;;;5056679;28;20202;-66
2022/09/10 03:09:54;;;;;;;4.47;2.53;;;14.00;99.90;;;;;;5055907;28;20708;-66
2022/09/10 03:12:20;;;;;;;3.40;2.40;;;14.00;99.90;;;;;;5054155;28;20229;-66
2022/09/10 03:14:46;;;;;;;2.37;2.17;;;14.00;99.90;;;;;;5058372;28;20640;-65
2022/09/10 03:17:11;;;;;;;4.87;2.30;;;13.90;99.90;;;;;;5047766;28;20190;-66
2022/09/10 03:19:38;;;;;;;2.03;1.87;;;13.90;99.90;;;;;;5065686;28;20171;-66
2022/09/10 03:22:04;;;;;;;3.20;2.47;;;13.90;99.90;;;;;;5059462;28;20273;-66
2022/09/10 03:24:29;;;;;;;4.53;2.37;;;13.90;99.90;;;;;;5059833;28;20301;-65
2022/09/10 03:26:55;;;;;;;3.33;2.40;;;13.90;99.90;;;;;;5057874;28;20209;-65
2022/09/10 03:29:21;;;;;;;3.83;2.47;;;13.80;99.90;;;;;;5054410;28;20186;-65
2022/09/10 03:31:50;;;;;;;2.43;2.00;;;13.80;99.90;;;;;;5058149;28;20225;-66
2022/09/10 03:34:16;;;;;;;2.33;2.13;;;13.80;99.90;;;;;;5057782;28;20253;-66
2022/09/10 03:36:42;;;;;;;2.83;2.37;;;13.80;99.90;;;;;;5056807;28;20203;-66
2022/09/10 03:39:07;;;;;;;2.70;2.13;;;13.80;99.90;;;;;;5054675;28;20268;-66
2022/09/10 03:41:33;;;;;;;4.50;3.00;;;13.80;99.90;;;;;;5061721;28;20193;-65
2022/09/10 03:43:59;;;;;;;2.80;2.23;;;13.80;99.90;;;;;;5051310;28;20210;-65
2022/09/10 03:46:25;;;;;;;4.97;2.37;;;13.70;99.90;;;;;;5050557;28;20189;-65
2022/09/10 03:48:51;;;;;;;4.40;2.63;;;13.70;99.90;;;;;;5044793;28;20596;-65
2022/09/10 03:51:16;;;;;;;2.63;2.43;;;13.60;99.90;;;;;;5051219;28;20922;-65
2022/09/10 03:53:42;;;;;;;2.80;2.07;;;13.70;99.90;;;;;;5053274;28;20232;-65
2022/09/10 03:56:11;;;;;;;5.00;2.70;;;13.70;99.90;;;;;;5055932;28;20938;-65
2022/09/10 03:58:36;;;;;;;3.17;2.90;;;13.60;99.90;;;;;;5053941;28;20220;-65
2022/09/10 04:01:03;;;;;;;2.50;2.30;;;13.60;99.90;;;;;;5056673;28;20178;-65
2022/09/10 04:03:28;;;;;;;3.73;2.60;;;13.60;99.90;;;;;;5045273;28;20628;-65
2022/09/10 04:05:54;;;;;;;2.63;2.43;;;13.60;99.90;;;;;;5047593;28;20203;-64
2022/09/10 04:08:19;;;;;;;6.00;3.07;;;13.60;99.90;;;;;;5043381;28;20556;-64
2022/09/10 04:10:47;;;;;;;3.97;2.60;;;13.50;99.90;;;;;;5047492;28;20249;-65
2022/09/10 04:13:13;;;;;;;4.90;2.77;;;13.50;99.90;;;;;;5053924;28;20306;-65
2022/09/10 04:15:38;;;;;;;3.77;2.93;;;13.50;99.90;;;;;;5048813;28;20272;-65
2022/09/10 04:18:05;;;;;;;5.27;2.40;;;13.50;99.90;;;;;;5052770;28;20213;-65
2022/09/10 04:20:32;;;;;;;4.50;2.47;;;13.50;99.90;;;;;;5061534;28;20236;-65
2022/09/10 04:22:58;;;;;;;3.63;2.60;;;13.40;99.90;;;;;;5051734;28;20213;-65
2022/09/10 04:25:23;;;;;;;3.33;2.37;;;13.40;99.90;;;;;;5058838;28;20190;-65
2022/09/10 04:27:49;;;;;;;2.93;2.43;;;13.40;99.90;;;;;;5053026;28;20212;-65
2022/09/10 04:30:16;;;;;;;2.90;2.50;;;13.40;99.90;;;;;;5057270;28;20194;-65
2022/09/10 04:32:41;;;;;;;2.90;2.23;;;13.40;99.90;;;;;;5049012;28;20210;-64
2022/09/10 04:35:07;;;;;;;2.40;2.20;;;13.30;99.90;;;;;;5049381;28;20186;-65
2022/09/10 04:37:33;;;;;;;5.03;2.37;;;13.30;99.90;;;;;;5047234;28;20226;-65
2022/09/10 04:39:59;;;;;;;2.90;2.20;;;13.30;99.90;;;;;;5050157;28;20233;-65
2022/09/10 04:42:25;;;;;;;5.07;2.40;;;13.30;99.90;;;;;;5047239;28;20292;-65
2022/09/10 04:44:50;;;;;;;3.83;2.63;;;13.30;99.90;;;;;;5052630;28;20699;-65
2022/09/10 04:47:17;;;;;;;6.03;3.00;;;13.30;99.90;;;;;;5048818;28;20243;-66
2022/09/10 04:49:42;;;;;;;6.83;2.80;;;13.30;99.90;;;;;;5060505;28;20190;-65
2022/09/10 04:52:12;;;;;;;3.43;2.43;;;13.30;99.90;;;;;;5054916;28;20214;-68
2022/09/10 04:54:38;;;;;;;3.03;2.77;;;13.30;99.90;;;;;;5053055;28;20289;-68
2022/09/10 04:57:06;;;;;;;2.40;2.20;;;13.30;99.90;;;;;;5045215;28;20198;-68
2022/09/10 04:59:32;;;;;;;3.73;2.77;;;13.30;99.90;;;;;;5052907;28;20272;-66
2022/09/10 05:01:57;;;;;;;7.03;2.73;;;13.30;99.90;;;;;;5059145;28;20887;-66
2022/09/10 05:04:23;;;;;;;2.27;2.17;;;13.30;99.90;;;;;;5060484;28;20203;-65
2022/09/10 05:06:49;;;;;;;3.47;2.50;;;13.30;99.90;;;;;;5058249;28;20668;-64
2022/09/10 05:09:19;;;;;;;3.60;2.70;;;13.30;99.90;;;;;;5063159;28;20210;-64
2022/09/10 05:11:48;;;;;;;4.87;2.70;;;13.30;99.90;;;;;;5054470;28;20616;-64
2022/09/10 05:14:14;;;;;;;2.70;2.50;;;13.40;99.90;;;;;;5057704;28;20206;-64
2022/09/10 05:16:40;;;;;;;5.90;3.03;;;13.40;99.90;;;;;;5063574;28;20694;-64
2022/09/10 05:19:05;;;;;;;3.80;2.30;;;13.40;99.90;;;;;;5056551;28;20727;-64
2022/09/10 05:21:31;;;;;;;4.17;2.13;;;13.40;99.90;;;;;;5062478;28;20206;-64
2022/09/10 05:23:57;;;;;;;4.33;2.53;;;13.50;99.90;;;;;;5057336;28;20200;-64
2022/09/10 05:26:23;;;;;;;4.27;2.30;;;13.40;99.90;;;;;;5049517;28;20183;-64
2022/09/10 05:28:52;;;;;;;2.50;2.27;;;13.40;99.90;;;;;;5055198;28;20234;-64
2022/09/10 05:31:17;;;;;;;3.80;2.70;;;13.50;99.90;;;;;;5058337;28;20261;-64
2022/09/10 05:33:43;;;;;;;2.90;2.70;;;13.50;99.90;;;;;;5065222;28;20893;-64
2022/09/10 05:36:09;;;;;;;3.33;2.43;;;13.50;99.90;;;;;;5059765;28;20598;-64
2022/09/10 05:38:35;;;;;;;3.63;2.17;;;13.50;99.90;;;;;;5054034;28;20198;-64
2022/09/10 05:41:00;;;;;;;4.23;2.70;;;13.50;99.90;;;;;;5063444;28;20198;-65
2022/09/10 05:43:26;;;;;;;2.67;2.40;;;13.50;99.90;;;;;;5058212;28;20210;-64
2022/09/10 05:45:52;;;;;;;5.10;2.67;;;13.60;99.90;;;;;;5062508;28;20716;-65
2022/09/10 05:48:18;;;;;;;4.23;2.57;;;13.60;99.90;;;;;;5055226;28;20210;-64
2022/09/10 05:50:46;;;;;;;5.97;2.90;;;13.60;99.90;;;;;;5037899;28;20228;-64
2022/09/10 05:53:12;;;;;;;3.77;2.77;;;13.70;99.90;;;;;;5057286;28;20214;-64
2022/09/10 05:55:38;;;;;;;2.33;2.13;;;13.70;99.90;;;;;;5061377;28;20289;-65
2022/09/10 05:58:04;;;;;;;4.13;2.50;;;13.80;99.90;;;;;;5060654;28;20942;-65
2022/09/10 06:00:29;;;;;;;4.50;2.40;;;13.90;99.90;;;;;;5059150;28;20205;-66
2022/09/10 06:02:58;;;;;;;4.13;2.50;;;13.90;99.90;;;;;;5048617;28;20201;-71
2022/09/10 06:05:24;;;;;;;2.93;2.73;;;14.00;99.90;;;;;;5059960;28;20264;-71
2022/09/10 06:07:50;;;;;;;5.23;1.97;;;14.00;99.90;;;;;;5057924;28;20211;-71
2022/09/10 06:10:15;;;;;;;4.07;2.10;;;14.10;99.90;;;;;;5055103;28;20556;-66
2022/09/10 06:12:45;;;;;;;2.50;2.23;;;14.20;99.90;;;;;;5052774;28;20229;-66
2022/09/10 06:15:11;;;;;;;4.33;2.40;;;14.40;99.90;;;;;;5050981;28;20191;-66
2022/09/10 06:17:37;;;;;;;3.17;2.17;;;14.50;99.90;;;;;;5051246;28;20256;-68
2022/09/10 06:20:03;;;;;;;5.17;2.37;;;14.70;99.90;;;;;;5055983;28;20183;-67
2022/09/10 06:22:29;;;;;;;4.10;2.20;;;14.80;99.90;;;;;;5049773;28;20643;-68
2022/09/10 06:24:55;;;;;;;5.00;2.10;;;14.80;99.90;;;;;;5055844;28;20649;-70
2022/09/10 06:27:22;;;;;;;2.30;2.03;;;14.80;99.90;;;;;;5057591;28;20193;-69
2022/09/10 06:29:48;;;;;;;3.33;2.03;;;14.90;99.90;;;;;;5053298;28;20705;-67
2022/09/10 06:32:13;;;;;;;5.90;2.03;;;15.00;99.90;;;;;;5055900;28;20211;-66
2022/09/10 06:34:39;;;;;;;4.20;2.17;;;15.00;99.90;;;;;;5052161;28;20247;-69
2022/09/10 06:37:05;;;;;;;3.87;1.90;;;15.10;99.90;;;;;;5058168;28;20224;-66
2022/09/10 06:39:30;;;;;;;2.50;2.23;;;15.10;99.90;;;;;;5054420;28;20282;-67
2022/09/10 06:41:56;;;;;;;7.03;2.23;;;15.20;99.90;;;;;;5054681;28;20644;-68
2022/09/10 06:44:21;;;;;;;4.93;2.50;;;15.20;99.90;;;;;;5055418;28;20664;-69
2022/09/10 06:46:47;;;;;;;3.00;1.80;;;15.30;99.90;;;;;;5053879;28;20188;-65
2022/09/10 06:49:13;;;;;;;3.27;2.00;;;15.40;99.90;;;;;;5055186;28;20284;-69
2022/09/10 06:51:39;;;;;;;5.07;1.90;;;15.50;99.90;;;;;;5054603;28;20300;-71
2022/09/10 06:54:06;;;;;;;2.93;2.00;;;15.50;99.90;;;;;;5051047;28;20201;-70
2022/09/10 06:56:31;;;;;;;4.93;2.60;;;15.60;99.90;;;;;;5056015;28;20217;-69
2022/09/10 06:58:57;;;;;;;4.20;2.10;;;15.70;99.90;;;;;;5052018;28;20561;-68
2022/09/10 07:01:24;;;;;;;6.77;2.37;;;15.80;99.90;;;;;;5054763;28;20183;-67
2022/09/10 07:03:55;;;;;;;2.43;2.13;;;15.90;99.90;;;;;;5051608;28;20694;-64
2022/09/10 07:06:22;;;;;;;5.60;2.03;;;16.00;99.90;;;;;;5050921;28;20230;-68
2022/09/10 07:08:47;;;;;;;2.60;1.27;;;16.10;99.90;;;;;;5050417;28;20234;-69
2022/09/10 07:11:14;;;;;;;3.37;1.93;;;16.20;99.90;;;;;;5057455;28;20291;-69
2022/09/10 07:13:41;;;;;;;3.47;2.30;;;16.30;99.90;;;;;;5059761;28;20262;-71
2022/09/10 07:16:07;;;;;;;3.30;1.93;;;16.40;99.90;;;;;;5054720;28;20195;-70
2022/09/10 07:18:33;;;;;;;4.00;1.80;;;16.50;99.90;;;;;;5051831;28;20201;-69
2022/09/10 07:21:10;;;;;;;2.03;1.90;;;16.50;99.90;;;;;;5060222;28;20279;-78
2022/09/10 07:23:37;;;;;;;3.70;1.97;;;16.70;99.90;;;;;;5054453;28;20724;-68
2022/09/10 07:26:10;;;;;;;2.43;1.40;;;16.80;99.90;;;;;;5048782;28;20202;-68
2022/09/10 07:28:37;;;;;;;2.77;1.97;;;16.80;99.90;;;;;;5052311;28;20219;-68
2022/09/10 07:31:26;;;;;;;4.00;2.00;;;16.90;99.90;;;;;;5058384;28;20194;-68
2022/09/10 07:33:53;;;;;;;4.43;1.83;;;16.90;99.90;;;;;;5055282;28;20268;-68
2022/09/10 07:36:19;;;;;;;1.30;1.30;;;16.90;99.90;;;;;;5055199;28;20199;-68
2022/09/10 07:38:45;;;;;;;2.13;1.43;;;17.00;99.90;;;;;;5045499;28;20231;-68
2022/09/10 07:41:13;;;;;;;3.63;1.70;;;17.10;99.90;;;;;;5048982;28;20226;-68
2022/09/10 07:43:39;;;;;;;3.87;1.93;;;17.20;99.90;;;;;;5051545;28;20203;-70
2022/09/10 07:46:06;;;;;;;4.67;2.00;;;17.30;99.90;;;;;;5057867;28;20243;-71
2022/09/10 07:48:32;;;;;;;3.33;1.67;;;17.40;99.90;;;;;;5054281;28;20232;-69
2022/09/10 07:51:03;;;;;;;3.23;1.57;;;17.40;99.90;;;;;;5056531;28;20484;-69
2022/09/10 07:53:29;;;;;;;3.60;1.33;;;17.40;99.90;;;;;;5044752;28;20696;-70
2022/09/10 07:55:59;;;;;;;1.80;1.47;;;17.50;99.90;;;;;;5062991;28;20232;-71
2022/09/10 07:58:26;;;;;;;1.70;1.37;;;17.50;99.90;;;;;;5052314;28;20595;-70
2022/09/10 08:00:52;;;;;;;2.97;1.33;;;17.60;99.90;;;;;;5051241;28;20218;-71
2022/09/10 08:03:20;;;;;;;4.37;1.50;;;17.70;99.90;;;;;;5050300;28;20199;-77
2022/09/10 08:05:46;;;;;;;1.27;1.10;;;17.80;99.90;;;;;;5052492;28;20192;-69
2022/09/10 08:08:12;;;;;;;1.57;1.30;;;17.80;99.90;;;;;;5047154;28;20206;-69
2022/09/10 08:10:37;;;;;;;1.40;1.30;;;17.80;99.90;;;;;;5048892;28;20189;-69
2022/09/10 08:13:03;;;;;;;3.20;1.73;;;17.90;99.90;;;;;;5053709;28;20213;-69
2022/09/10 08:15:28;;;;;;;1.90;1.47;;;17.90;99.90;;;;;;5052921;28;20183;-70
2022/09/10 08:17:54;;;;;;;4.10;1.53;;;18.00;99.90;;;;;;5050563;28;20193;-70
2022/09/10 08:20:20;;;;;;;7.40;1.17;;;18.10;99.90;;;;;;5056477;28;20211;-70
2022/09/10 08:22:48;;;;;;;2.77;1.47;;;18.20;99.90;;;;;;5060173;28;20197;-70
2022/09/10 08:25:14;;;;;;;2.33;1.07;;;18.30;99.90;;;;;;5048417;28;20196;-69
2022/09/10 08:27:40;;;;;;;2.43;1.10;;;18.40;99.90;;;;;;5056702;28;20248;-68
2022/09/10 08:30:07;;;;;;;1.73;1.10;;;18.50;99.90;;;;;;5047138;28;20283;-71
2022/09/10 08:32:34;;;;;;;1.83;1.20;;;18.40;99.90;;;;;;5047102;28;20221;-69
2022/09/10 08:35:00;;;;;;;1.77;1.27;;;18.50;99.90;;;;;;5057997;28;20565;-70
2022/09/10 08:37:27;;;;;;;1.73;1.40;;;18.50;99.90;;;;;;5061417;28;20194;-70
2022/09/10 08:39:53;;;;;;;2.33;1.20;;;18.60;99.90;;;;;;5053991;28;20206;-70
2022/09/10 08:42:28;;;;;;;1.30;1.20;;;18.70;99.90;;;;;;5050835;28;20193;-71
2022/09/10 08:45:01;;;;;;;4.07;2.20;;;18.70;99.90;;;;;;5057829;28;20214;-71
2022/09/10 08:47:42;;;;;;;2.00;0.97;;;18.80;99.90;;;;;;5054015;28;20233;-70
2022/09/10 08:50:17;;;;;;;4.33;2.83;;;18.80;99.90;;;;;;5049776;28;20214;-71
2022/09/10 08:52:44;;;;;;;2.50;1.60;;;18.90;99.90;;;;;;5056029;28;20220;-70
2022/09/10 08:55:15;;;;;;;1.90;1.60;;;18.90;99.90;;;;;;5050178;28;20202;-70
2022/09/10 08:57:49;;;;;;;1.60;1.23;;;18.90;99.90;;;;;;5053570;28;20189;-71
2022/09/10 09:00:20;;;;;;;1.13;1.03;;;19.00;99.90;;;;;;5053686;28;20236;-71
2022/09/10 09:02:55;;;;;;;3.10;1.00;;;19.10;99.90;;;;;;5059886;28;20197;-76
2022/09/10 09:05:22;;;;;;;2.23;1.40;;;19.20;99.90;;;;;;5053279;28;20688;-78
2022/09/10 09:07:49;;;;;;;2.70;1.20;;;19.30;99.90;;;;;;5057378;28;20195;-84
2022/09/10 09:10:23;;;;;;;2.10;1.00;;;19.40;99.90;;;;;;5054151;28;20529;-70
2022/09/10 09:13:15;;;;;;;3.43;1.43;;;19.50;99.90;;;;;;5057023;28;20216;-70
2022/09/10 09:15:48;;;;;;;2.17;1.23;;;19.50;99.90;;;;;;5055352;28;20178;-67
2022/09/10 09:18:22;;;;;;;1.50;1.37;;;19.60;99.90;;;;;;5055926;28;20189;-69
2022/09/10 09:20:59;;;;;;;3.00;1.23;;;19.60;99.90;;;;;;5060682;28;20271;-68
2022/09/10 09:23:41;;;;;;;1.43;0.90;;;19.70;99.90;;;;;;5054287;28;20672;-71
2022/09/10 09:26:12;;;;;;;1.87;1.13;;;19.70;99.90;;;;;;5057840;28;20186;-72
2022/09/10 09:28:58;;;;;;;1.33;0.90;;;19.80;99.90;;;;;;5055375;28;20205;-72
2022/09/10 09:31:31;;;;;;;1.23;0.80;;;19.80;99.90;;;;;;5055943;28;20195;-70
2022/09/10 09:34:06;;;;;;;1.80;0.90;;;19.80;99.90;;;;;;5054439;28;20213;-69
2022/09/10 09:36:44;;;;;;;1.73;1.23;;;19.80;99.90;;;;;;5062243;28;20194;-71
2022/09/10 09:39:18;;;;;;;2.33;1.20;;;19.90;99.90;;;;;;5059831;28;20638;-74
2022/09/10 09:42:13;;;;;;;3.37;1.00;;;19.90;99.90;;;;;;5047299;28;20185;-67
2022/09/10 09:44:44;;;;;;;1.83;1.13;;;20.10;99.90;;;;;;5047979;28;20204;-68
2022/09/10 09:47:10;;;;;;;2.50;1.10;;;20.20;99.90;;;;;;5050912;28;20199;-68
2022/09/10 09:49:36;;;;;;;2.67;0.80;;;20.30;99.90;;;;;;5045639;28;20207;-68
2022/09/10 09:52:15;;;;;;;1.93;1.10;;;20.40;99.90;;;;;;5047018;28;20758;-67
2022/09/10 09:54:44;;;;;;;1.90;0.90;;;20.30;99.90;;;;;;5045100;28;20215;-75
2022/09/10 09:57:15;;;;;;;2.30;1.00;;;20.20;99.90;;;;;;5058584;28;20245;-75
2022/09/10 09:59:41;;;;;;;1.43;0.87;;;20.30;99.90;;;;;;5055778;28;20250;-69
2022/09/10 10:02:14;;;;;;;1.93;0.77;;;20.40;99.90;;;;;;5055353;28;20674;-72
2022/09/10 10:04:53;;;;;;;1.43;0.90;;;20.60;99.90;;;;;;5051769;28;20224;-67
2022/09/10 10:07:30;;;;;;;1.83;0.80;;;20.70;99.90;;;;;;5052032;28;20222;-68
2022/09/10 10:09:59;;;;;;;2.70;0.90;;;20.80;99.90;;;;;;5056079;28;20213;-67
2022/09/10 10:12:27;;;;;;;2.77;1.03;;;21.00;99.90;;;;;;5060460;28;20306;-67
2022/09/10 10:14:53;;;;;;;4.87;1.10;;;21.10;99.90;;;;;;5044784;28;20680;-68
2022/09/10 10:17:32;;;;;;;0.77;0.70;;;21.20;99.90;;;;;;5056681;28;20190;-67
2022/09/10 10:23:28;;;;;;;2.47;1.07;;;20.80;99.90;;;;;;5041391;28;20731;-67
2022/09/10 10:25:54;;;;;;;1.40;1.00;;;20.80;99.90;;;;;;5051850;28;20192;-68
2022/09/10 10:28:25;;;;;;;1.30;0.83;;;20.90;99.90;;;;;;5053139;28;20240;-67
2022/09/10 10:30:53;;;;;;;3.27;0.87;;;20.90;99.90;;;;;;5055415;28;20186;-67
2022/09/10 10:33:25;;;;;;;1.10;1.00;;;20.90;99.90;;;;;;5056697;28;20252;-68
2022/09/10 10:36:09;;;;;;;0.60;0.60;;;20.80;99.90;;;;;;5055373;28;20185;-68
2022/09/10 10:38:40;;;;;;;1.33;0.90;;;20.80;99.90;;;;;;5056211;28;20250;-68
2022/09/10 10:41:12;;;;;;;3.40;1.20;;;20.70;99.90;;;;;;5055518;28;20221;-67
2022/09/10 10:43:54;;;;;;;2.10;1.03;;;20.70;99.90;;;;;;5053024;28;20211;-67
2022/09/10 10:46:24;;;;;;;2.70;1.33;;;20.80;99.90;;;;;;5054717;28;20221;-67
2022/09/10 10:49:24;;;;;;;1.47;1.07;;;20.80;99.90;;;;;;5054298;28;20616;-67
2022/09/10 10:52:14;;;;;;;3.87;1.37;;;20.70;99.90;;;;;;5054081;28;20223;-68
2022/09/10 10:55:03;;;;;;;2.10;1.50;;;20.60;99.90;;;;;;5054876;28;20677;-68
2022/09/10 10:57:45;;;;;;;3.63;1.30;;;20.70;99.90;;;;;;5061248;28;20238;-67
2022/09/10 11:00:18;;;;;;;1.30;0.70;;;20.80;99.90;;;;;;5049049;28;20232;-67
2022/09/10 11:03:10;;;;;;;1.97;1.13;;;20.80;99.90;;;;;;5057404;28;20679;-68
2022/09/10 11:05:40;;;;;;;2.83;1.17;;;20.60;99.90;;;;;;5042892;28;20635;-68
2022/09/10 11:08:22;;;;;;;1.43;0.70;;;20.70;99.90;;;;;;5052814;28;20651;-66
2022/09/10 11:10:59;;;;;;;1.73;0.80;;;21.00;99.90;;;;;;5053948;28;20510;-67
2022/09/10 11:13:37;;;;;;;2.80;1.37;;;21.50;99.90;;;;;;5054125;28;20310;-68
2022/09/10 11:16:11;;;;;;;3.03;1.17;;;21.70;99.90;;;;;;5059894;28;20189;-68
2022/09/10 11:18:52;;;;;;;2.40;1.17;;;21.80;99.90;;;;;;5050507;28;20197;-67
2022/09/10 11:21:37;;;;;;;3.17;1.07;;;22.00;99.90;;;;;;5051343;28;20233;-67
2022/09/10 11:24:11;;;;;;;2.10;1.00;;;22.20;99.90;;;;;;5051287;28;20295;-67
2022/09/10 11:27:01;;;;;;;0.93;0.83;;;22.10;99.90;;;;;;5051959;28;20186;-68
2022/09/10 11:29:38;;;;;;;5.20;1.50;;;22.20;99.90;;;;;;5054891;28;20205;-67
2022/09/10 11:32:11;;;;;;;1.70;1.10;;;22.30;99.90;;;;;;5051197;28;20601;-67
2022/09/10 11:35:04;;;;;;;1.10;0.90;;;22.10;99.90;;;;;;5054274;28;20193;-68
2022/09/10 11:37:52;;;;;;;5.40;1.57;;;22.30;99.90;;;;;;5050716;28;20193;-67
2022/09/10 11:40:42;;;;;;;1.93;1.10;;;22.70;99.90;;;;;;5051462;28;20198;-67
2022/09/10 11:43:13;;;;;;;2.87;1.10;;;22.70;99.90;;;;;;5055769;28;20661;-67
2022/09/10 11:45:53;;;;;;;4.47;1.37;;;22.50;99.90;;;;;;5055909;28;20201;-67
2022/09/10 11:49:02;;;;;;;2.43;1.10;;;22.50;99.90;;;;;;5061005;28;20193;-67
2022/09/10 11:51:32;;;;;;;1.53;1.20;;;22.90;99.90;;;;;;5056579;28;20708;-67
2022/09/10 11:54:01;;;;;;;1.53;1.07;;;23.10;99.90;;;;;;5052081;28;20199;-67
2022/09/10 11:56:49;;;;;;;1.47;1.37;;;22.70;99.80;;;;;;5054517;28;20385;-66
2022/09/10 12:00:11;;;;;;;1.87;1.27;;;22.50;99.90;;;;;;5048014;28;20233;-67
2022/09/10 12:03:02;;;;;;;1.77;1.07;;;22.40;99.90;;;;;;4982311;28;20196;-67
2022/09/10 12:05:58;;;;;;;1.40;1.30;;;22.20;99.90;;;;;;4980700;28;20772;-67
2022/09/10 12:08:50;;;;;;;4.30;1.30;;;22.10;99.90;;;;;;5044793;28;20202;-67
2022/09/10 12:11:34;;;;;;;1.30;1.20;;;22.00;99.90;;;;;;5062907;28;20586;-67
2022/09/10 12:14:11;;;;;;;2.50;0.97;;;22.30;99.90;;;;;;5060834;28;20675;-67
2022/09/10 12:16:47;;;;;;;1.50;1.07;;;22.30;99.90;;;;;;5056960;28;20182;-67
2022/09/10 12:19:28;;;;;;;1.57;1.07;;;22.50;99.90;;;;;;5051923;28;20206;-67
2022/09/10 12:22:04;;;;;;;0.90;0.80;;;22.70;99.90;;;;;;5051385;28;20229;-67
2022/09/10 12:24:33;;;;;;;1.03;0.73;;;23.40;99.50;;;;;;5060785;28;20202;-67
2022/09/10 12:27:00;;;;;;;0.80;0.80;;;24.10;97.50;;;;;;5060200;28;20207;-67
2022/09/10 12:29:28;;;;;;;0.93;0.60;;;24.70;95.40;;;;;;5052959;28;20194;-67
2022/09/10 12:32:18;;;;;;;1.27;0.80;;;24.50;95.50;;;;;;5058275;28;20293;-67
2022/09/10 12:34:49;;;;;;;1.37;0.87;;;24.30;95.70;;;;;;5057038;28;20683;-67
2022/09/10 12:37:26;;;;;;;0.80;0.70;;;24.60;94.70;;;;;;5060549;28;20195;-67
2022/09/10 12:40:34;;;;;;;2.83;1.23;;;24.40;94.60;;;;;;5063675;28;20202;-67
2022/09/10 12:43:38;;;;;;;4.00;1.03;;;24.50;94.80;;;;;;5047919;28;20626;-66
2022/09/10 12:46:11;;;;;;;1.55;0.82;;;24.40;94.60;;;;;;5048102;28;20209;-66
2022/09/10 12:48:43;;;;;;;3.33;2.30;;;24.30;94.90;;;;;;5051133;28;20182;-67
2022/09/10 12:51:18;;;;;;;3.15;1.00;;;24.10;95.50;;;;;;5048116;28;20195;-66
2022/09/10 12:53:55;;;;;;;1.30;1.00;;;24.50;95.00;;;;;;5056463;28;20212;-67
2022/09/10 12:56:30;;;;;;;2.85;0.90;;;24.40;95.80;;;;;;5054649;28;20179;-66
2022/09/10 12:59:28;;;;;;;0.80;0.80;;;24.50;96.40;;;;;;5056265;28;20770;-69
2022/09/10 13:01:54;;;;;;;2.03;1.10;;;24.80;94.20;;;;;;5065930;28;20218;-68
2022/09/10 13:04:29;;;;;;;1.13;1.02;;;25.00;94.20;;;;;;5055823;28;20343;-67
2022/09/10 13:07:04;;;;;;;1.77;1.10;;;24.80;93.70;;;;;;5055742;28;20194;-68
2022/09/10 13:09:36;;;;;;;1.05;0.80;;;24.70;93.90;;;;;;5054168;28;20205;-67
2022/09/10 13:12:14;;;;;;;3.33;1.13;;;25.00;93.80;;;;;;5058432;28;20213;-75
2022/09/10 13:14:46;;;;;;;2.40;0.90;;;25.10;93.70;;;;;;5057919;28;20212;-67